Tropical Cyclones
[Index]
Main Index Home Page Stock Weather Photos Extreme Storms Discussion Storm News and Storm Chasing Reports Tropical Cyclones / Hurricanes / Typhoons Weather Data and Links Wild Fires / Bushfires Weather Observation Techniques Weather Picture Catalogue Tornado Pictures and Reports Stock Video Footage and DVDs for sale
Season 2006-2007 Tropical Cyclone NELSON Track Map
Season 2006-2007 Summaries (Operational Data): [AU] [SIO] [SPAC] [SH]
<<- Previous TC | 2006-2007 Season | Next TC ->>

click for intensity scale information  Lat/long Grid: Show Hide

 Date Labels: Show Hide

Operational Tropical Cyclone Data : JTWC Advisories | BoM Warnings

Name: NELSON
Number: 0712

31 Jan 2007 06:00 UTC to 07 Feb 2007 03:00 UTC

    date/time    lat    long     hPa   cat  kts
2007-01-31 06   11.3   135.6    1001         25          
2007-01-31 12   11.0   136.6    1001         25          
2007-01-31 18   11.1   137.1    1001         25          
2007-02-01 00   11.1   137.4    1000         30          
2007-02-01 06   11.6   138.0     998         30          
2007-02-01 12   12.5   138.5     998         30          
2007-02-01 18   13.7   139.2     998         25          
2007-02-02 00   13.3   140.1     997         30          
2007-02-02 06   14.0   138.0     998         25          
2007-02-02 12   14.5   137.9     998         25          
2007-02-02 18   14.5   138.1     998         25          
2007-02-03 00   14.8   137.8     999         25          
2007-02-03 06   14.9   137.7     998         25          
2007-02-03 12   15.1   137.6     998         25          
2007-02-03 18   15.5   137.9     998         25          
2007-02-04 00   15.6   137.4    1000         25          
2007-02-04 06   15.9   137.2     999         25          
2007-02-04 12   15.7   137.1     999         25          
2007-02-04 18   15.7   136.9     998         25          
2007-02-05 00   15.8   137.2     999         25          
2007-02-05 06   15.7   137.3     996         25          
2007-02-05 12   15.7   137.7     998         25          
2007-02-05 18   15.8   138.2     995         30          
2007-02-05 21   15.8   139.0     992    1    35          
2007-02-06 00   15.9   139.8     990    1    40          
2007-02-06 06   16.1   140.5     990    1    40          
2007-02-06 12   16.4   140.4     985    2    50          
2007-02-06 18   16.5   141.3     980    2    55          
2007-02-07 00   16.5   142.0     992    1    35          
2007-02-07 03   16.4   142.3     995         30          
Winds are 10-min average.

Tropical cyclone tracks developed by Michael Bath using operational warnings and advisories and Google Maps.


[Australian Severe Weather index] [Copyright Notice] [Email Contacts] [Search This Site] [Privacy Policy]
Document: tropical_cyclone_nelson.htm Updated: 28 May 2013